Time;durP1;ratioP1;P1;durP2;ratioP2;P2;SDS_P1;SDS_P2;PMS_P1;PMS_P2;Temp;Humidity;BMP_temperature;BMP_pressure;BME280_temperature;BME280_humidity;BME280_pressure;Samples;Min_cycle;Max_cycle;Signal;HPM_P1;HPM_P2
2023/06/10 00:01:30;;;;;;;8.20;3.95;;;;;;;;;;10561836;28;20122;-74
2023/06/10 00:06:35;;;;;;;7.20;3.88;;;;;;;;;;10579461;28;20068;-74
2023/06/10 00:11:38;;;;;;;9.18;4.00;;;;;;;;;;10558851;28;20043;-75
2023/06/10 00:16:44;;;;;;;7.30;3.65;;;;;;;;;;10581655;28;20317;-75
2023/06/10 00:21:50;;;;;;;7.80;4.10;;;;;;;;;;10571637;28;20036;-74
2023/06/10 00:26:53;;;;;;;7.55;4.28;;;;;;;;;;10570332;28;20165;-74
2023/06/10 00:31:57;;;;;;;8.23;4.35;;;;;;;;;;10569003;28;20113;-74
2023/06/10 00:37:01;;;;;;;9.10;4.72;;;;;;;;;;10560567;28;20062;-75
2023/06/10 00:42:06;;;;;;;9.70;4.68;;;;;;;;;;10556901;28;20110;-74
2023/06/10 00:47:09;;;;;;;9.68;5.03;;;;;;;;;;10577749;28;20084;-74
2023/06/10 00:52:14;;;;;;;7.73;4.57;;;;;;;;;;10557036;28;20040;-75
2023/06/10 00:57:17;;;;;;;9.95;5.32;;;;;;;;;;10561021;28;20044;-74
2023/06/10 01:02:20;;;;;;;8.45;4.75;;;;;;;;;;10570165;28;20051;-74
2023/06/10 01:07:25;;;;;;;10.70;5.20;;;;;;;;;;10561308;28;20040;-75
2023/06/10 01:12:32;;;;;;;8.35;4.90;;;;;;;;;;10546645;28;20098;-75
2023/06/10 01:17:36;;;;;;;8.52;4.93;;;;;;;;;;10558536;28;20048;-75
2023/06/10 01:22:40;;;;;;;8.88;5.07;;;;;;;;;;10555603;28;20046;-75
2023/06/10 01:27:44;;;;;;;12.73;5.68;;;;;;;;;;10554687;28;20104;-75
2023/06/10 01:32:48;;;;;;;9.18;4.72;;;;;;;;;;10562423;28;20036;-75
2023/06/10 01:37:54;;;;;;;9.10;5.35;;;;;;;;;;10555795;28;20140;-75
2023/06/10 01:42:57;;;;;;;12.13;4.97;;;;;;;;;;10556630;28;20052;-75
2023/06/10 01:47:59;;;;;;;11.30;5.33;;;;;;;;;;10553934;28;20049;-75
2023/06/10 01:53:05;;;;;;;8.93;5.40;;;;;;;;;;10566005;28;20040;-76
2023/06/10 01:58:08;;;;;;;9.15;4.80;;;;;;;;;;10559252;28;20028;-75
2023/06/10 02:03:10;;;;;;;11.37;5.07;;;;;;;;;;10549870;28;20099;-74
2023/06/10 02:08:15;;;;;;;9.52;4.88;;;;;;;;;;10563847;28;20047;-75
2023/06/10 02:13:18;;;;;;;9.63;4.90;;;;;;;;;;10562787;28;20060;-75
2023/06/10 02:18:21;;;;;;;11.40;4.93;;;;;;;;;;10553119;28;20048;-75
2023/06/10 02:23:26;;;;;;;11.00;5.07;;;;;;;;;;10575641;28;20810;-75
2023/06/10 02:28:28;;;;;;;8.70;4.95;;;;;;;;;;10557733;28;20433;-77
2023/06/10 02:33:31;;;;;;;9.85;5.45;;;;;;;;;;10566756;28;20052;-75
2023/06/10 02:38:35;;;;;;;11.97;5.70;;;;;;;;;;10572920;28;20044;-75
2023/06/10 02:43:39;;;;;;;10.60;5.65;;;;;;;;;;10581758;28;20046;-76
2023/06/10 02:48:43;;;;;;;12.88;5.97;;;;;;;;;;10579776;28;20056;-74
2023/06/10 02:53:47;;;;;;;9.77;5.15;;;;;;;;;;10566840;28;20100;-75
2023/06/10 02:58:51;;;;;;;10.77;5.35;;;;;;;;;;10577763;28;20055;-75
2023/06/10 03:03:56;;;;;;;9.85;5.57;;;;;;;;;;10581641;28;20102;-76
2023/06/10 03:09:00;;;;;;;14.05;5.72;;;;;;;;;;10544432;28;20054;-76
2023/06/10 03:14:03;;;;;;;11.05;5.40;;;;;;;;;;10574502;28;20067;-75
2023/06/10 03:19:07;;;;;;;12.30;6.17;;;;;;;;;;10563530;28;20059;-74
2023/06/10 03:24:11;;;;;;;11.90;6.18;;;;;;;;;;10572819;28;20051;-74
2023/06/10 03:29:14;;;;;;;12.60;6.30;;;;;;;;;;10560225;28;20043;-74
2023/06/10 03:34:17;;;;;;;12.02;6.70;;;;;;;;;;10587065;28;20043;-75
2023/06/10 03:39:21;;;;;;;12.50;7.20;;;;;;;;;;10579020;28;20040;-75
2023/06/10 03:44:25;;;;;;;17.95;6.82;;;;;;;;;;10596113;28;20039;-75
2023/06/10 03:49:29;;;;;;;14.50;6.70;;;;;;;;;;10580154;28;20040;-75
2023/06/10 03:54:34;;;;;;;13.70;6.65;;;;;;;;;;10579750;28;20064;-74
2023/06/10 03:59:36;;;;;;;17.55;7.50;;;;;;;;;;10570960;28;20043;-75
2023/06/10 04:04:39;;;;;;;13.93;7.13;;;;;;;;;;10596368;28;20048;-74
2023/06/10 04:09:43;;;;;;;12.48;6.65;;;;;;;;;;10586208;28;20047;-74
2023/06/10 04:14:46;;;;;;;12.38;6.60;;;;;;;;;;10571699;28;20047;-74
2023/06/10 04:19:50;;;;;;;13.57;6.95;;;;;;;;;;10592502;28;20071;-75
2023/06/10 04:24:53;;;;;;;;;;;;;;;;;;10560965;28;20040;-74
2023/06/10 04:29:57;;;;;;;15.07;6.63;;;;;;;;;;10564853;28;19930;-76
2023/06/10 04:35:00;;;;;;;10.35;5.57;;;;;;;;;;10568814;28;20527;-73
2023/06/10 04:40:03;;;;;;;10.77;5.75;;;;;;;;;;10585677;28;20032;-73
2023/06/10 04:45:09;;;;;;;12.75;6.28;;;;;;;;;;10582426;28;20138;-74
2023/06/10 04:50:13;;;;;;;12.45;5.90;;;;;;;;;;10580438;28;20452;-76
2023/06/10 04:55:16;;;;;;;13.00;6.13;;;;;;;;;;10575234;28;20051;-74
2023/06/10 05:00:21;;;;;;;11.52;5.75;;;;;;;;;;10594732;28;20049;-74
2023/06/10 05:05:24;;;;;;;12.85;6.53;;;;;;;;;;10576845;28;20555;-75
2023/06/10 05:10:27;;;;;;;10.10;5.97;;;;;;;;;;10570238;28;20040;-74
2023/06/10 05:15:31;;;;;;;12.57;6.05;;;;;;;;;;10574717;28;20083;-75
2023/06/10 05:20:34;;;;;;;11.63;5.90;;;;;;;;;;10585009;28;20040;-75
2023/06/10 05:25:38;;;;;;;12.00;6.18;;;;;;;;;;10569520;28;20070;-76
2023/06/10 05:30:42;;;;;;;10.25;4.10;;;;;;;;;;10567467;28;20040;-76
2023/06/10 05:35:44;;;;;;;13.43;6.32;;;;;;;;;;10586966;28;20072;-76
2023/06/10 05:40:47;;;;;;;15.57;6.87;;;;;;;;;;10561908;28;20078;-76
2023/06/10 05:45:51;;;;;;;12.80;6.37;;;;;;;;;;10576060;28;20078;-75
2023/06/10 05:50:54;;;;;;;15.45;6.18;;;;;;;;;;10591066;28;20040;-75
2023/06/10 05:55:57;;;;;;;12.38;6.07;;;;;;;;;;10585234;28;20122;-76
2023/06/10 06:01:01;;;;;;;14.10;6.88;;;;;;;;;;10572569;28;20087;-76
2023/06/10 06:06:05;;;;;;;12.57;6.25;;;;;;;;;;10588969;28;20040;-76
2023/06/10 06:11:08;;;;;;;13.75;6.45;;;;;;;;;;10566098;28;20040;-75
2023/06/10 06:16:12;;;;;;;11.20;6.20;;;;;;;;;;10604066;28;20057;-75
2023/06/10 06:21:14;;;;;;;11.45;6.32;;;;;;;;;;10591191;28;20036;-75
2023/06/10 06:26:17;;;;;;;12.17;5.77;;;;;;;;;;10600454;28;20107;-74
2023/06/10 06:31:21;;;;;;;11.33;6.10;;;;;;;;;;10572819;28;20118;-73
2023/06/10 06:36:24;;;;;;;11.57;6.15;;;;;;;;;;10607618;28;20039;-75
2023/06/10 06:41:27;;;;;;;13.43;6.45;;;;;;;;;;10569644;28;20102;-75
2023/06/10 06:46:31;;;;;;;11.77;6.40;;;;;;;;;;10597299;28;20043;-74
2023/06/10 06:51:33;;;;;;;15.07;6.70;;;;;;;;;;10596750;28;20078;-75
2023/06/10 06:56:36;;;;;;;12.55;6.70;;;;;;;;;;10576342;28;20071;-76
2023/06/10 07:01:40;;;;;;;11.60;6.20;;;;;;;;;;10580988;28;20103;-75
2023/06/10 07:06:43;;;;;;;12.40;5.95;;;;;;;;;;10574444;28;20083;-75
2023/06/10 07:11:46;;;;;;;11.25;5.93;;;;;;;;;;10566337;28;20127;-76
2023/06/10 07:16:51;;;;;;;11.05;5.72;;;;;;;;;;10582009;28;20576;-75
2023/06/10 07:21:54;;;;;;;10.25;5.65;;;;;;;;;;10581175;28;20076;-75
2023/06/10 07:26:57;;;;;;;11.50;6.07;;;;;;;;;;10584826;28;20040;-76
2023/06/10 07:32:01;;;;;;;11.02;6.00;;;;;;;;;;10585132;28;20040;-75
2023/06/10 07:37:05;;;;;;;9.52;5.18;;;;;;;;;;10579285;28;20066;-73
2023/06/10 07:42:08;;;;;;;9.55;5.25;;;;;;;;;;10585617;28;20043;-75
2023/06/10 07:47:12;;;;;;;8.80;5.03;;;;;;;;;;10588461;28;20130;-75
2023/06/10 07:52:15;;;;;;;8.20;4.55;;;;;;;;;;10570286;28;20070;-73
2023/06/10 07:57:18;;;;;;;9.20;4.65;;;;;;;;;;10584046;28;20123;-75
2023/06/10 08:02:23;;;;;;;8.02;4.75;;;;;;;;;;10582995;28;20446;-75
2023/06/10 08:07:27;;;;;;;5.90;4.32;;;;;;;;;;10579303;28;20121;-75
2023/06/10 08:12:30;;;;;;;6.75;5.03;;;;;;;;;;10576931;28;20032;-76
2023/06/10 08:17:34;;;;;;;7.20;5.00;;;;;;;;;;10588933;28;20047;-74
2023/06/10 08:22:37;;;;;;;7.57;4.68;;;;;;;;;;10584837;28;20048;-75
2023/06/10 08:27:40;;;;;;;6.72;4.47;;;;;;;;;;10565250;28;20051;-76
2023/06/10 08:32:45;;;;;;;5.65;3.92;;;;;;;;;;10578867;28;20521;-75
2023/06/10 08:37:49;;;;;;;6.43;4.75;;;;;;;;;;10587048;28;20044;-75
2023/06/10 08:42:59;;;;;;;5.63;4.50;;;;;;;;;;10567621;28;20051;-75
2023/06/10 08:48:06;;;;;;;5.00;4.50;;;;;;;;;;10583589;28;20066;-75
2023/06/10 08:53:11;;;;;;;5.03;4.10;;;;;;;;;;10575686;28;20051;-75
2023/06/10 08:58:14;;;;;;;4.85;4.15;;;;;;;;;;10577065;28;20044;-75
2023/06/10 09:03:18;;;;;;;7.00;4.30;;;;;;;;;;10562760;28;20095;-75
2023/06/10 09:08:22;;;;;;;7.25;4.60;;;;;;;;;;10598773;28;20127;-74
2023/06/10 09:13:25;;;;;;;5.93;4.40;;;;;;;;;;10567614;28;20036;-75
2023/06/10 09:18:29;;;;;;;5.43;4.35;;;;;;;;;;10575736;28;20044;-75
2023/06/10 09:23:32;;;;;;;7.47;4.93;;;;;;;;;;10574790;28;20128;-75
2023/06/10 09:28:34;;;;;;;4.57;4.05;;;;;;;;;;10578104;28;20060;-75
2023/06/10 09:33:39;;;;;;;5.13;4.60;;;;;;;;;;10566910;28;20036;-75
2023/06/10 09:38:42;;;;;;;4.85;4.35;;;;;;;;;;10574165;28;20048;-75
2023/06/10 09:43:46;;;;;;;4.78;4.38;;;;;;;;;;10578305;28;20039;-75
2023/06/10 09:48:50;;;;;;;4.57;4.13;;;;;;;;;;10586199;28;20044;-75
2023/06/10 09:53:52;;;;;;;5.40;4.50;;;;;;;;;;10576061;28;20036;-75
2023/06/10 09:58:55;;;;;;;4.05;3.50;;;;;;;;;;10575777;28;20043;-75
2023/06/10 10:04:00;;;;;;;4.95;4.45;;;;;;;;;;10575233;28;20086;-74
2023/06/10 10:09:03;;;;;;;6.53;4.22;;;;;;;;;;10582883;28;20527;-74
2023/06/10 10:14:07;;;;;;;3.72;3.13;;;;;;;;;;10575818;28;20065;-74
2023/06/10 10:19:16;;;;;;;4.30;3.60;;;;;;;;;;10583139;28;20052;-76
2023/06/10 10:24:23;;;;;;;4.88;3.92;;;;;;;;;;10580647;28;20087;-74
2023/06/10 10:29:30;;;;;;;5.57;3.97;;;;;;;;;;10579413;28;20043;-74
2023/06/10 10:34:36;;;;;;;5.82;4.13;;;;;;;;;;10583759;28;20044;-76
2023/06/10 10:39:39;;;;;;;4.60;3.85;;;;;;;;;;10579960;28;20035;-72
2023/06/10 10:44:42;;;;;;;4.57;3.55;;;;;;;;;;10571747;28;20043;-74
2023/06/10 10:49:47;;;;;;;3.85;3.50;;;;;;;;;;10581597;28;20377;-74
2023/06/10 10:54:50;;;;;;;4.45;3.55;;;;;;;;;;10586868;28;20027;-74
2023/06/10 10:59:55;;;;;;;3.85;3.50;;;;;;;;;;10583017;28;20048;-75
2023/06/10 11:04:59;;;;;;;4.13;3.72;;;;;;;;;;10589439;28;20039;-77
2023/06/10 11:10:03;;;;;;;3.65;3.25;;;;;;;;;;10572998;28;20055;-75
2023/06/10 11:15:06;;;;;;;3.40;2.88;;;;;;;;;;10589208;28;20032;-75
2023/06/10 11:20:11;;;;;;;3.50;2.85;;;;;;;;;;10596690;28;20061;-74
2023/06/10 11:25:15;;;;;;;3.25;2.85;;;;;;;;;;10571870;28;20063;-74
2023/06/10 11:30:21;;;;;;;3.55;3.15;;;;;;;;;;10589882;28;20051;-74
2023/06/10 11:35:27;;;;;;;3.30;2.50;;;;;;;;;;10579693;28;20111;-74
2023/06/10 11:40:30;;;;;;;3.83;3.35;;;;;;;;;;10580407;28;20135;-74
2023/06/10 11:45:33;;;;;;;4.03;3.00;;;;;;;;;;10578891;28;20063;-75
2023/06/10 11:50:37;;;;;;;3.42;2.80;;;;;;;;;;10570617;28;20067;-75
2023/06/10 11:55:42;;;;;;;2.92;2.65;;;;;;;;;;10587510;28;20057;-75
2023/06/10 12:00:45;;;;;;;3.72;3.08;;;;;;;;;;10575358;28;20047;-75
2023/06/10 12:05:57;;;;;;;3.47;2.83;;;;;;;;;;10588184;28;20046;-74
2023/06/10 12:11:00;;;;;;;3.08;2.47;;;;;;;;;;10591132;28;20121;-75
2023/06/10 12:16:09;;;;;;;2.75;2.55;;;;;;;;;;10579572;28;20027;-74
2023/06/10 12:21:21;;;;;;;3.50;2.47;;;;;;;;;;10590167;28;20107;-74
2023/06/10 12:26:34;;;;;;;3.05;2.00;;;;;;;;;;10578392;28;20340;-75
2023/06/10 12:31:52;;;;;;;2.80;2.30;;;;;;;;;;10559118;28;20089;-74
2023/06/10 12:36:57;;;;;;;2.63;2.42;;;;;;;;;;10584853;28;20051;-73
2023/06/10 12:42:01;;;;;;;4.10;2.30;;;;;;;;;;10576492;28;20043;-75
2023/06/10 12:47:08;;;;;;;2.85;2.40;;;;;;;;;;10568854;28;20050;-75
2023/06/10 12:52:12;;;;;;;2.90;2.58;;;;;;;;;;10570293;28;20104;-75
2023/06/10 12:57:16;;;;;;;2.88;2.50;;;;;;;;;;10593327;28;20111;-76
2023/06/10 13:02:19;;;;;;;4.70;3.58;;;;;;;;;;10586785;28;20043;-75
2023/06/10 13:07:24;;;;;;;4.88;3.42;;;;;;;;;;10582111;28;20048;-74
2023/06/10 13:12:28;;;;;;;4.18;3.13;;;;;;;;;;10566589;28;20047;-76
2023/06/10 13:17:49;;;;;;;6.55;3.70;;;;;;;;;;10538663;28;20374;-74
2023/06/10 13:22:54;;;;;;;5.20;3.95;;;;;;;;;;10562077;28;20028;-74
2023/06/10 13:27:57;;;;;;;6.45;3.80;;;;;;;;;;10574631;28;20134;-74
2023/06/10 13:33:00;;;;;;;5.72;3.47;;;;;;;;;;10589147;28;20058;-74
2023/06/10 13:38:04;;;;;;;3.53;2.72;;;;;;;;;;10569923;28;20044;-74
2023/06/10 13:43:09;;;;;;;4.82;3.35;;;;;;;;;;10564223;28;20107;-74
2023/06/10 13:48:12;;;;;;;4.45;2.75;;;;;;;;;;10577652;28;20047;-74
2023/06/10 13:53:16;;;;;;;4.10;3.10;;;;;;;;;;10560238;28;20050;-74
2023/06/10 13:58:19;;;;;;;4.97;3.17;;;;;;;;;;10565018;28;20123;-73
2023/06/10 14:03:22;;;;;;;4.43;2.80;;;;;;;;;;10584752;28;20501;-74
2023/06/10 14:08:26;;;;;;;5.70;3.38;;;;;;;;;;10573152;28;20055;-73
2023/06/10 14:13:29;;;;;;;4.50;3.25;;;;;;;;;;10582371;28;20042;-75
2023/06/10 14:18:32;;;;;;;4.55;3.15;;;;;;;;;;10579999;28;20031;-74
2023/06/10 14:23:36;;;;;;;5.40;3.20;;;;;;;;;;10570951;28;20094;-74
2023/06/10 14:28:38;;;;;;;5.82;3.22;;;;;;;;;;10574344;28;20048;-74
2023/06/10 14:33:43;;;;;;;4.38;3.00;;;;;;;;;;10562563;28;20093;-75
2023/06/10 14:38:48;;;;;;;4.05;2.88;;;;;;;;;;10564714;28;20046;-75
2023/06/10 14:43:51;;;;;;;4.22;2.20;;;;;;;;;;10575348;28;20070;-75
2023/06/10 14:48:54;;;;;;;4.07;2.55;;;;;;;;;;10587853;28;20028;-75
2023/06/10 14:53:59;;;;;;;4.28;2.67;;;;;;;;;;10587552;28;20036;-75
2023/06/10 14:59:02;;;;;;;3.80;2.58;;;;;;;;;;10589179;28;20043;-74
2023/06/10 15:04:05;;;;;;;4.72;2.90;;;;;;;;;;10590163;28;20568;-74
2023/06/10 15:09:09;;;;;;;4.78;2.88;;;;;;;;;;10581187;28;20046;-75
2023/06/10 15:14:11;;;;;;;4.82;3.00;;;;;;;;;;10569916;28;20039;-75
2023/06/10 15:19:14;;;;;;;6.30;3.00;;;;;;;;;;10580716;28;20078;-75
2023/06/10 15:24:18;;;;;;;4.63;3.30;;;;;;;;;;10589147;28;20119;-74
2023/06/10 15:29:21;;;;;;;5.35;2.88;;;;;;;;;;10573452;28;20036;-74
2023/06/10 15:34:23;;;;;;;4.70;3.03;;;;;;;;;;10590178;28;20118;-74
2023/06/10 15:39:27;;;;;;;4.95;2.95;;;;;;;;;;10586152;28;20082;-72
2023/06/10 15:44:30;;;;;;;8.43;3.00;;;;;;;;;;10580991;28;20053;-74
2023/06/10 15:49:32;;;;;;;4.35;3.10;;;;;;;;;;10575717;28;20588;-75
2023/06/10 15:54:36;;;;;;;4.22;2.92;;;;;;;;;;10587483;28;20132;-74
2023/06/10 15:59:39;;;;;;;4.45;2.88;;;;;;;;;;10588280;28;20480;-75
2023/06/10 16:04:41;;;;;;;6.63;3.38;;;;;;;;;;10595688;28;20044;-75
2023/06/10 16:09:45;;;;;;;5.50;3.60;;;;;;;;;;10580535;28;20065;-75
2023/06/10 16:14:48;;;;;;;6.55;3.63;;;;;;;;;;10580443;28;20104;-75
2023/06/10 16:19:50;;;;;;;5.45;3.40;;;;;;;;;;10585806;28;20067;-73
2023/06/10 16:24:54;;;;;;;5.32;3.55;;;;;;;;;;10560041;28;20036;-75
2023/06/10 16:29:57;;;;;;;6.97;3.80;;;;;;;;;;10588308;28;20058;-74
2023/06/10 16:35:00;;;;;;;6.13;3.60;;;;;;;;;;10569099;28;20281;-76
2023/06/10 16:40:04;;;;;;;5.70;3.03;;;;;;;;;;10574810;28;20036;-74
2023/06/10 16:45:07;;;;;;;5.30;3.13;;;;;;;;;;10585026;28;20516;-74
2023/06/10 16:50:10;;;;;;;4.75;2.90;;;;;;;;;;10561731;28;20046;-74
2023/06/10 16:55:14;;;;;;;4.57;3.00;;;;;;;;;;10591741;28;20149;-75
2023/06/10 17:00:17;;;;;;;6.45;3.20;;;;;;;;;;10585838;28;20050;-74
2023/06/10 17:05:20;;;;;;;4.38;2.90;;;;;;;;;;10577316;28;20095;-74
2023/06/10 17:10:24;;;;;;;4.90;3.20;;;;;;;;;;10584000;28;20074;-74
2023/06/10 17:15:26;;;;;;;4.88;3.10;;;;;;;;;;10578321;28;20040;-75
2023/06/10 17:20:30;;;;;;;;;;;;;;;;;;10574125;28;20039;-75
2023/06/10 17:25:36;;;;;;;4.28;2.65;;;;;;;;;;10580126;28;19920;-75
2023/06/10 17:30:38;;;;;;;5.28;2.40;;;;;;;;;;10597566;28;20039;-74
2023/06/10 17:35:41;;;;;;;;;;;;;;;;;;10593911;28;20036;-74
2023/06/10 17:40:45;;;;;;;7.13;3.00;;;;;;;;;;10569284;28;19946;-74
2023/06/10 17:45:48;;;;;;;5.05;2.78;;;;;;;;;;10574080;28;20312;-74
2023/06/10 17:50:51;;;;;;;7.03;3.22;;;;;;;;;;10583220;28;20089;-76
2023/06/10 17:55:53;;;;;;;;;;;;;;;;;;10591397;28;20087;-74
2023/06/10 18:00:59;;;;;;;6.28;3.53;;;;;;;;;;10575174;28;19934;-74
2023/06/10 18:06:01;;;;;;;6.10;3.38;;;;;;;;;;10579723;28;20341;-75
2023/06/10 18:11:04;;;;;;;7.40;3.90;;;;;;;;;;10593922;28;20036;-75
2023/06/10 18:16:08;;;;;;;8.07;4.07;;;;;;;;;;10588078;28;20039;-76
2023/06/10 18:21:11;;;;;;;6.55;3.60;;;;;;;;;;10584516;28;20272;-74
2023/06/10 18:26:14;;;;;;;6.65;3.70;;;;;;;;;;10598835;28;20127;-76
2023/06/10 18:31:18;;;;;;;6.68;3.22;;;;;;;;;;10595781;28;20047;-74
2023/06/10 18:36:20;;;;;;;5.30;3.38;;;;;;;;;;10599706;28;20039;-75
2023/06/10 18:41:24;;;;;;;5.03;3.00;;;;;;;;;;10574473;28;20388;-75
2023/06/10 18:46:28;;;;;;;5.40;2.90;;;;;;;;;;10581002;28;20074;-75
2023/06/10 18:51:30;;;;;;;5.93;3.30;;;;;;;;;;10598159;28;20048;-75
2023/06/10 18:56:33;;;;;;;5.72;3.60;;;;;;;;;;10592078;28;20055;-75
2023/06/10 19:01:37;;;;;;;5.75;3.50;;;;;;;;;;10570066;28;20058;-74
2023/06/10 19:06:40;;;;;;;11.07;3.70;;;;;;;;;;10580858;28;20097;-75
2023/06/10 19:11:43;;;;;;;6.00;3.17;;;;;;;;;;10564887;28;20059;-74
2023/06/10 19:16:47;;;;;;;7.25;3.90;;;;;;;;;;10584993;28;20047;-75
2023/06/10 19:21:50;;;;;;;8.82;4.20;;;;;;;;;;10573718;28;20039;-77
2023/06/10 19:26:52;;;;;;;6.78;4.07;;;;;;;;;;10583388;28;20104;-74
2023/06/10 19:31:57;;;;;;;9.65;4.30;;;;;;;;;;10567855;28;20496;-75
2023/06/10 19:36:59;;;;;;;8.65;4.47;;;;;;;;;;10586829;28;20063;-75
2023/06/10 19:42:02;;;;;;;8.23;4.00;;;;;;;;;;10578485;28;20047;-75
2023/06/10 19:47:08;;;;;;;7.10;3.92;;;;;;;;;;10576876;28;20038;-76
2023/06/10 19:52:10;;;;;;;7.78;4.55;;;;;;;;;;10563533;28;20043;-75
2023/06/10 19:57:13;;;;;;;11.00;4.87;;;;;;;;;;10585692;28;20055;-75
2023/06/10 20:02:17;;;;;;;9.07;4.65;;;;;;;;;;10551539;28;20043;-75
2023/06/10 20:07:20;;;;;;;8.77;4.85;;;;;;;;;;10564958;28;20195;-76
2023/06/10 20:12:23;;;;;;;8.53;4.43;;;;;;;;;;10572988;28;20198;-75
2023/06/10 20:17:27;;;;;;;9.23;4.40;;;;;;;;;;10575499;28;20048;-75
2023/06/10 20:22:29;;;;;;;8.25;4.15;;;;;;;;;;10568861;28;20048;-75
2023/06/10 20:27:32;;;;;;;10.47;4.67;;;;;;;;;;10582264;28;20040;-75
2023/06/10 20:32:36;;;;;;;8.00;4.43;;;;;;;;;;10564762;28;20508;-75
2023/06/10 20:37:39;;;;;;;9.80;4.43;;;;;;;;;;10569978;28;20040;-73
2023/06/10 20:42:41;;;;;;;11.03;4.47;;;;;;;;;;10559849;28;20051;-73
2023/06/10 20:47:45;;;;;;;9.95;4.93;;;;;;;;;;10586498;28;20032;-74
2023/06/10 20:52:48;;;;;;;10.15;4.65;;;;;;;;;;10562790;28;20069;-74
2023/06/10 20:57:53;;;;;;;9.40;4.63;;;;;;;;;;10569152;28;20135;-74
2023/06/10 21:02:57;;;;;;;8.02;3.63;;;;;;;;;;10558383;28;20467;-72
2023/06/10 21:08:00;;;;;;;9.55;4.28;;;;;;;;;;10550652;28;20032;-72
2023/06/10 21:13:03;;;;;;;8.73;4.88;;;;;;;;;;10552930;28;20068;-72
2023/06/10 21:18:07;;;;;;;10.95;5.10;;;;;;;;;;10556067;28;20105;-74
2023/06/10 21:23:10;;;;;;;8.75;4.93;;;;;;;;;;10555111;28;20055;-74
2023/06/10 21:28:14;;;;;;;8.70;5.05;;;;;;;;;;10560752;28;20326;-74
2023/06/10 21:33:21;;;;;;;10.60;4.57;;;;;;;;;;10551706;28;20151;-73
2023/06/10 21:38:24;;;;;;;11.10;4.57;;;;;;;;;;10556581;28;20067;-73
2023/06/10 21:43:26;;;;;;;8.48;4.57;;;;;;;;;;10553665;28;20040;-73
2023/06/10 21:48:30;;;;;;;8.57;4.22;;;;;;;;;;10550084;28;20915;-74
2023/06/10 21:53:33;;;;;;;7.90;4.28;;;;;;;;;;10551487;28;20124;-73
2023/06/10 21:58:35;;;;;;;9.23;4.83;;;;;;;;;;10550541;28;20036;-73
2023/06/10 22:03:39;;;;;;;9.53;4.70;;;;;;;;;;10548017;28;20047;-75
2023/06/10 22:08:42;;;;;;;7.38;4.07;;;;;;;;;;10551392;28;20131;-73
2023/06/10 22:13:45;;;;;;;8.70;4.83;;;;;;;;;;10552338;28;20044;-75
2023/06/10 22:18:49;;;;;;;9.30;4.67;;;;;;;;;;10551484;28;20067;-73
2023/06/10 22:23:52;;;;;;;8.95;4.88;;;;;;;;;;10547044;28;20117;-76
2023/06/10 22:28:54;;;;;;;10.93;5.53;;;;;;;;;;10549377;28;20036;-75
2023/06/10 22:34:01;;;;;;;9.48;4.88;;;;;;;;;;10552671;28;20046;-75
2023/06/10 22:39:05;;;;;;;8.48;4.70;;;;;;;;;;10547762;28;20036;-75
2023/06/10 22:44:08;;;;;;;8.88;4.82;;;;;;;;;;10540735;28;20406;-75
2023/06/10 22:49:13;;;;;;;9.20;5.07;;;;;;;;;;10548431;28;20040;-75
2023/06/10 22:54:16;;;;;;;11.05;5.68;;;;;;;;;;10547071;28;20416;-75
2023/06/10 22:59:18;;;;;;;9.73;4.90;;;;;;;;;;10556639;28;20131;-74
2023/06/10 23:04:22;;;;;;;9.87;5.20;;;;;;;;;;10556534;28;20643;-75
2023/06/10 23:09:25;;;;;;;11.93;4.68;;;;;;;;;;10555773;28;20374;-74
2023/06/10 23:14:27;;;;;;;11.02;5.30;;;;;;;;;;10549168;28;20056;-75
2023/06/10 23:19:33;;;;;;;10.13;5.10;;;;;;;;;;10551095;28;20123;-75
2023/06/10 23:24:36;;;;;;;8.77;4.90;;;;;;;;;;10554483;28;20045;-75
2023/06/10 23:29:39;;;;;;;10.13;5.75;;;;;;;;;;10550611;28;20051;-75
2023/06/10 23:35:01;;;;;;;10.77;5.18;;;;;;;;;;10555548;28;20040;-75
2023/06/10 23:40:06;;;;;;;10.40;5.18;;;;;;;;;;10548427;28;20068;-75
2023/06/10 23:45:09;;;;;;;9.20;5.32;;;;;;;;;;10550537;28;20060;-75
2023/06/10 23:50:12;;;;;;;;;;;;;;;;;;10553632;28;20048;-75
2023/06/10 23:55:16;;;;;;;11.52;4.72;;;;;;;;;;10549581;28;19927;-75
